sensor_id;sensor_type;location;lat;lon;timestamp;P1;durP1;ratioP1;P2;durP2;ratioP2
50429;SDS011;36359;41.556;-8.418;2023-06-14T00:00:51;5.20;;;3.50;;
50429;SDS011;36359;41.556;-8.418;2023-06-14T00:03:18;5.93;;;2.80;;
50429;SDS011;36359;41.556;-8.418;2023-06-14T00:05:47;8.63;;;2.63;;
50429;SDS011;36359;41.556;-8.418;2023-06-14T00:08:13;5.47;;;3.03;;
50429;SDS011;36359;41.556;-8.418;2023-06-14T00:10:40;6.50;;;2.63;;
50429;SDS011;36359;41.556;-8.418;2023-06-14T00:13:10;3.65;;;2.47;;
50429;SDS011;36359;41.556;-8.418;2023-06-14T00:15:37;7.47;;;2.95;;
50429;SDS011;36359;41.556;-8.418;2023-06-14T00:18:03;5.35;;;2.63;;
50429;SDS011;36359;41.556;-8.418;2023-06-14T00:20:30;7.03;;;3.22;;
50429;SDS011;36359;41.556;-8.418;2023-06-14T00:22:58;4.55;;;2.67;;
50429;SDS011;36359;41.556;-8.418;2023-06-14T00:25:25;7.00;;;2.85;;
50429;SDS011;36359;41.556;-8.418;2023-06-14T00:27:52;7.95;;;2.65;;
50429;SDS011;36359;41.556;-8.418;2023-06-14T00:30:18;7.25;;;2.80;;
50429;SDS011;36359;41.556;-8.418;2023-06-14T00:32:44;8.98;;;3.35;;
50429;SDS011;36359;41.556;-8.418;2023-06-14T00:35:10;5.50;;;2.83;;
50429;SDS011;36359;41.556;-8.418;2023-06-14T00:37:44;7.85;;;2.97;;
50429;SDS011;36359;41.556;-8.418;2023-06-14T00:40:10;7.57;;;3.30;;
50429;SDS011;36359;41.556;-8.418;2023-06-14T00:42:36;8.27;;;3.40;;
50429;SDS011;36359;41.556;-8.418;2023-06-14T00:45:02;5.75;;;2.80;;
50429;SDS011;36359;41.556;-8.418;2023-06-14T00:47:28;7.53;;;3.28;;
50429;SDS011;36359;41.556;-8.418;2023-06-14T00:49:53;7.45;;;3.65;;
50429;SDS011;36359;41.556;-8.418;2023-06-14T00:52:23;5.32;;;3.00;;
50429;SDS011;36359;41.556;-8.418;2023-06-14T00:54:50;8.73;;;3.53;;
50429;SDS011;36359;41.556;-8.418;2023-06-14T00:57:16;7.45;;;2.83;;
50429;SDS011;36359;41.556;-8.418;2023-06-14T00:59:46;3.95;;;2.03;;
50429;SDS011;36359;41.556;-8.418;2023-06-14T01:04:40;8.23;;;3.60;;
50429;SDS011;36359;41.556;-8.418;2023-06-14T01:07:19;6.68;;;3.78;;
50429;SDS011;36359;41.556;-8.418;2023-06-14T01:15:32;6.68;;;3.97;;
50429;SDS011;36359;41.556;-8.418;2023-06-14T01:17:58;7.40;;;4.43;;
50429;SDS011;36359;41.556;-8.418;2023-06-14T01:20:32;7.03;;;4.03;;
50429;SDS011;36359;41.556;-8.418;2023-06-14T01:23:03;8.18;;;4.35;;
50429;SDS011;36359;41.556;-8.418;2023-06-14T01:25:29;5.43;;;3.30;;
50429;SDS011;36359;41.556;-8.418;2023-06-14T01:27:56;6.75;;;3.35;;
50429;SDS011;36359;41.556;-8.418;2023-06-14T01:30:26;7.32;;;3.40;;
50429;SDS011;36359;41.556;-8.418;2023-06-14T01:32:53;8.73;;;3.97;;
50429;SDS011;36359;41.556;-8.418;2023-06-14T01:35:21;6.05;;;3.75;;
50429;SDS011;36359;41.556;-8.418;2023-06-14T01:37:48;6.65;;;3.47;;
50429;SDS011;36359;41.556;-8.418;2023-06-14T01:40:14;6.20;;;3.45;;
50429;SDS011;36359;41.556;-8.418;2023-06-14T01:42:41;7.88;;;3.70;;
50429;SDS011;36359;41.556;-8.418;2023-06-14T01:45:09;6.45;;;3.30;;
50429;SDS011;36359;41.556;-8.418;2023-06-14T01:47:36;5.80;;;3.55;;
50429;SDS011;36359;41.556;-8.418;2023-06-14T01:50:03;6.35;;;3.30;;
50429;SDS011;36359;41.556;-8.418;2023-06-14T01:52:29;5.43;;;3.63;;
50429;SDS011;36359;41.556;-8.418;2023-06-14T01:54:55;7.97;;;4.18;;
50429;SDS011;36359;41.556;-8.418;2023-06-14T01:57:21;7.97;;;3.80;;
50429;SDS011;36359;41.556;-8.418;2023-06-14T01:59:48;7.47;;;4.10;;
50429;SDS011;36359;41.556;-8.418;2023-06-14T02:02:14;8.93;;;4.03;;
50429;SDS011;36359;41.556;-8.418;2023-06-14T02:04:41;6.55;;;3.47;;
50429;SDS011;36359;41.556;-8.418;2023-06-14T02:07:07;8.25;;;4.00;;
50429;SDS011;36359;41.556;-8.418;2023-06-14T02:09:33;7.40;;;3.88;;
50429;SDS011;36359;41.556;-8.418;2023-06-14T02:12:00;9.60;;;4.68;;
50429;SDS011;36359;41.556;-8.418;2023-06-14T02:14:26;7.82;;;4.30;;
50429;SDS011;36359;41.556;-8.418;2023-06-14T02:16:52;6.53;;;4.32;;
50429;SDS011;36359;41.556;-8.418;2023-06-14T02:19:19;11.02;;;5.75;;
50429;SDS011;36359;41.556;-8.418;2023-06-14T02:21:46;9.35;;;5.07;;
50429;SDS011;36359;41.556;-8.418;2023-06-14T02:24:12;6.57;;;4.47;;
50429;SDS011;36359;41.556;-8.418;2023-06-14T02:26:38;9.75;;;5.90;;
50429;SDS011;36359;41.556;-8.418;2023-06-14T02:29:05;10.20;;;5.18;;
50429;SDS011;36359;41.556;-8.418;2023-06-14T02:31:31;9.50;;;4.35;;
50429;SDS011;36359;41.556;-8.418;2023-06-14T02:33:58;7.15;;;4.13;;
50429;SDS011;36359;41.556;-8.418;2023-06-14T02:36:23;10.52;;;4.40;;
50429;SDS011;36359;41.556;-8.418;2023-06-14T02:38:50;9.32;;;4.72;;
50429;SDS011;36359;41.556;-8.418;2023-06-14T02:41:15;10.52;;;5.13;;
50429;SDS011;36359;41.556;-8.418;2023-06-14T02:43:41;12.15;;;4.88;;
50429;SDS011;36359;41.556;-8.418;2023-06-14T02:46:07;11.20;;;4.60;;
50429;SDS011;36359;41.556;-8.418;2023-06-14T02:48:32;6.85;;;3.28;;
50429;SDS011;36359;41.556;-8.418;2023-06-14T02:50:58;7.03;;;5.07;;
50429;SDS011;36359;41.556;-8.418;2023-06-14T02:53:24;9.70;;;5.80;;
50429;SDS011;36359;41.556;-8.418;2023-06-14T02:55:50;8.93;;;5.05;;
50429;SDS011;36359;41.556;-8.418;2023-06-14T02:58:16;9.05;;;5.07;;
50429;SDS011;36359;41.556;-8.418;2023-06-14T03:00:43;10.15;;;4.90;;
50429;SDS011;36359;41.556;-8.418;2023-06-14T03:03:09;8.00;;;4.80;;
50429;SDS011;36359;41.556;-8.418;2023-06-14T03:05:46;9.07;;;4.88;;
50429;SDS011;36359;41.556;-8.418;2023-06-14T03:08:17;8.55;;;4.47;;
50429;SDS011;36359;41.556;-8.418;2023-06-14T03:10:46;8.95;;;5.32;;
50429;SDS011;36359;41.556;-8.418;2023-06-14T03:13:13;9.05;;;5.32;;
50429;SDS011;36359;41.556;-8.418;2023-06-14T03:15:39;8.77;;;4.93;;
50429;SDS011;36359;41.556;-8.418;2023-06-14T03:18:09;9.18;;;5.68;;
50429;SDS011;36359;41.556;-8.418;2023-06-14T03:23:06;7.53;;;4.80;;
50429;SDS011;36359;41.556;-8.418;2023-06-14T03:25:32;8.63;;;4.63;;
50429;SDS011;36359;41.556;-8.418;2023-06-14T03:28:01;8.13;;;4.75;;
50429;SDS011;36359;41.556;-8.418;2023-06-14T03:30:29;8.55;;;4.80;;
50429;SDS011;36359;41.556;-8.418;2023-06-14T03:32:56;8.82;;;5.07;;
50429;SDS011;36359;41.556;-8.418;2023-06-14T03:35:23;8.23;;;4.93;;
50429;SDS011;36359;41.556;-8.418;2023-06-14T03:37:49;8.90;;;5.40;;
50429;SDS011;36359;41.556;-8.418;2023-06-14T03:40:15;8.65;;;4.95;;
50429;SDS011;36359;41.556;-8.418;2023-06-14T03:42:46;6.13;;;3.53;;
50429;SDS011;36359;41.556;-8.418;2023-06-14T03:45:12;10.93;;;5.88;;
50429;SDS011;36359;41.556;-8.418;2023-06-14T03:47:38;8.68;;;6.13;;
50429;SDS011;36359;41.556;-8.418;2023-06-14T03:50:04;7.25;;;5.50;;
50429;SDS011;36359;41.556;-8.418;2023-06-14T03:52:31;8.77;;;5.20;;
50429;SDS011;36359;41.556;-8.418;2023-06-14T03:54:58;8.13;;;5.47;;
50429;SDS011;36359;41.556;-8.418;2023-06-14T03:57:26;9.10;;;5.25;;
50429;SDS011;36359;41.556;-8.418;2023-06-14T03:59:54;8.98;;;5.78;;
50429;SDS011;36359;41.556;-8.418;2023-06-14T04:02:21;8.65;;;5.68;;
50429;SDS011;36359;41.556;-8.418;2023-06-14T04:04:50;11.30;;;5.32;;
50429;SDS011;36359;41.556;-8.418;2023-06-14T04:07:17;9.20;;;5.72;;
50429;SDS011;36359;41.556;-8.418;2023-06-14T04:09:45;8.48;;;5.80;;
50429;SDS011;36359;41.556;-8.418;2023-06-14T04:12:12;9.05;;;5.57;;
50429;SDS011;36359;41.556;-8.418;2023-06-14T04:14:38;11.70;;;6.50;;
50429;SDS011;36359;41.556;-8.418;2023-06-14T04:17:07;11.60;;;5.35;;
50429;SDS011;36359;41.556;-8.418;2023-06-14T04:19:32;11.15;;;5.88;;
50429;SDS011;36359;41.556;-8.418;2023-06-14T04:21:58;7.78;;;5.18;;
50429;SDS011;36359;41.556;-8.418;2023-06-14T04:24:28;8.18;;;5.10;;
50429;SDS011;36359;41.556;-8.418;2023-06-14T04:26:58;10.65;;;4.32;;
50429;SDS011;36359;41.556;-8.418;2023-06-14T04:29:24;8.50;;;4.80;;
50429;SDS011;36359;41.556;-8.418;2023-06-14T04:31:58;7.75;;;5.13;;
50429;SDS011;36359;41.556;-8.418;2023-06-14T04:34:25;10.65;;;4.82;;
50429;SDS011;36359;41.556;-8.418;2023-06-14T04:36:56;8.07;;;4.82;;
50429;SDS011;36359;41.556;-8.418;2023-06-14T04:39:31;7.20;;;5.05;;
50429;SDS011;36359;41.556;-8.418;2023-06-14T04:41:59;8.05;;;4.80;;
50429;SDS011;36359;41.556;-8.418;2023-06-14T04:44:26;7.10;;;4.45;;
50429;SDS011;36359;41.556;-8.418;2023-06-14T04:46:56;7.45;;;4.60;;
50429;SDS011;36359;41.556;-8.418;2023-06-14T04:49:25;10.50;;;4.88;;
50429;SDS011;36359;41.556;-8.418;2023-06-14T04:51:52;9.07;;;5.10;;
50429;SDS011;36359;41.556;-8.418;2023-06-14T04:54:25;8.20;;;4.28;;
50429;SDS011;36359;41.556;-8.418;2023-06-14T04:56:52;9.48;;;5.03;;
50429;SDS011;36359;41.556;-8.418;2023-06-14T04:59:23;9.70;;;4.32;;
50429;SDS011;36359;41.556;-8.418;2023-06-14T05:01:49;10.10;;;5.25;;
50429;SDS011;36359;41.556;-8.418;2023-06-14T05:04:17;9.57;;;4.53;;
50429;SDS011;36359;41.556;-8.418;2023-06-14T05:06:44;7.50;;;4.47;;
50429;SDS011;36359;41.556;-8.418;2023-06-14T05:09:11;9.68;;;4.70;;
50429;SDS011;36359;41.556;-8.418;2023-06-14T05:11:37;8.52;;;4.35;;
50429;SDS011;36359;41.556;-8.418;2023-06-14T05:14:03;8.43;;;4.95;;
50429;SDS011;36359;41.556;-8.418;2023-06-14T05:16:29;9.27;;;4.50;;
50429;SDS011;36359;41.556;-8.418;2023-06-14T05:18:55;8.73;;;4.28;;
50429;SDS011;36359;41.556;-8.418;2023-06-14T05:21:21;10.43;;;4.82;;
50429;SDS011;36359;41.556;-8.418;2023-06-14T05:23:47;9.07;;;4.82;;
50429;SDS011;36359;41.556;-8.418;2023-06-14T05:26:12;8.77;;;5.20;;
50429;SDS011;36359;41.556;-8.418;2023-06-14T05:28:38;11.65;;;5.43;;
50429;SDS011;36359;41.556;-8.418;2023-06-14T05:31:04;8.57;;;4.60;;
50429;SDS011;36359;41.556;-8.418;2023-06-14T05:33:29;12.57;;;5.40;;
50429;SDS011;36359;41.556;-8.418;2023-06-14T05:35:55;8.93;;;5.40;;
50429;SDS011;36359;41.556;-8.418;2023-06-14T05:38:21;12.95;;;5.50;;
50429;SDS011;36359;41.556;-8.418;2023-06-14T05:40:47;7.35;;;4.53;;
50429;SDS011;36359;41.556;-8.418;2023-06-14T05:43:12;7.53;;;5.22;;
50429;SDS011;36359;41.556;-8.418;2023-06-14T05:45:38;9.20;;;5.35;;
50429;SDS011;36359;41.556;-8.418;2023-06-14T05:48:04;11.30;;;5.68;;
50429;SDS011;36359;41.556;-8.418;2023-06-14T05:50:30;11.80;;;5.32;;
50429;SDS011;36359;41.556;-8.418;2023-06-14T05:52:55;11.13;;;5.75;;
50429;SDS011;36359;41.556;-8.418;2023-06-14T05:55:21;9.50;;;6.25;;
50429;SDS011;36359;41.556;-8.418;2023-06-14T05:57:47;10.38;;;5.90;;
50429;SDS011;36359;41.556;-8.418;2023-06-14T06:00:13;9.70;;;6.05;;
50429;SDS011;36359;41.556;-8.418;2023-06-14T06:02:44;8.98;;;5.00;;
50429;SDS011;36359;41.556;-8.418;2023-06-14T06:05:12;9.05;;;5.70;;
50429;SDS011;36359;41.556;-8.418;2023-06-14T06:07:38;9.75;;;5.57;;
50429;SDS011;36359;41.556;-8.418;2023-06-14T06:10:07;7.45;;;4.32;;
50429;SDS011;36359;41.556;-8.418;2023-06-14T06:12:33;7.53;;;4.05;;
50429;SDS011;36359;41.556;-8.418;2023-06-14T06:14:59;7.35;;;5.45;;
50429;SDS011;36359;41.556;-8.418;2023-06-14T06:17:25;9.77;;;5.90;;
50429;SDS011;36359;41.556;-8.418;2023-06-14T06:19:51;11.73;;;6.05;;
50429;SDS011;36359;41.556;-8.418;2023-06-14T06:22:17;9.23;;;5.38;;
50429;SDS011;36359;41.556;-8.418;2023-06-14T06:24:43;6.25;;;4.20;;
50429;SDS011;36359;41.556;-8.418;2023-06-14T06:27:08;7.30;;;5.05;;
50429;SDS011;36359;41.556;-8.418;2023-06-14T06:29:34;11.77;;;4.78;;
50429;SDS011;36359;41.556;-8.418;2023-06-14T06:32:00;5.90;;;3.72;;
50429;SDS011;36359;41.556;-8.418;2023-06-14T06:34:27;9.30;;;4.97;;
50429;SDS011;36359;41.556;-8.418;2023-06-14T06:36:53;7.70;;;3.85;;
50429;SDS011;36359;41.556;-8.418;2023-06-14T06:39:19;14.63;;;5.95;;
50429;SDS011;36359;41.556;-8.418;2023-06-14T06:41:44;8.73;;;5.00;;
50429;SDS011;36359;41.556;-8.418;2023-06-14T06:44:10;8.82;;;5.28;;
50429;SDS011;36359;41.556;-8.418;2023-06-14T06:46:38;6.70;;;4.07;;
50429;SDS011;36359;41.556;-8.418;2023-06-14T06:49:08;7.75;;;5.03;;
50429;SDS011;36359;41.556;-8.418;2023-06-14T06:51:37;8.80;;;4.72;;
50429;SDS011;36359;41.556;-8.418;2023-06-14T06:54:03;8.80;;;5.20;;
50429;SDS011;36359;41.556;-8.418;2023-06-14T06:56:28;9.40;;;4.63;;
50429;SDS011;36359;41.556;-8.418;2023-06-14T06:58:54;7.43;;;4.35;;
50429;SDS011;36359;41.556;-8.418;2023-06-14T07:01:20;8.38;;;4.35;;
50429;SDS011;36359;41.556;-8.418;2023-06-14T07:03:46;6.35;;;3.25;;
50429;SDS011;36359;41.556;-8.418;2023-06-14T07:06:12;8.93;;;4.10;;
50429;SDS011;36359;41.556;-8.418;2023-06-14T07:08:38;9.73;;;3.78;;
50429;SDS011;36359;41.556;-8.418;2023-06-14T07:11:04;7.18;;;3.83;;
50429;SDS011;36359;41.556;-8.418;2023-06-14T07:13:31;6.43;;;3.00;;
50429;SDS011;36359;41.556;-8.418;2023-06-14T07:16:00;5.18;;;3.28;;
50429;SDS011;36359;41.556;-8.418;2023-06-14T07:18:26;5.65;;;3.15;;
50429;SDS011;36359;41.556;-8.418;2023-06-14T07:20:53;6.07;;;3.13;;
50429;SDS011;36359;41.556;-8.418;2023-06-14T07:23:20;4.72;;;3.10;;
50429;SDS011;36359;41.556;-8.418;2023-06-14T07:25:46;10.02;;;3.60;;
50429;SDS011;36359;41.556;-8.418;2023-06-14T07:28:12;5.25;;;2.75;;
50429;SDS011;36359;41.556;-8.418;2023-06-14T07:30:37;4.60;;;2.88;;
50429;SDS011;36359;41.556;-8.418;2023-06-14T07:33:03;6.18;;;2.75;;
50429;SDS011;36359;41.556;-8.418;2023-06-14T07:35:29;5.68;;;3.30;;
50429;SDS011;36359;41.556;-8.418;2023-06-14T07:37:56;5.82;;;2.80;;
50429;SDS011;36359;41.556;-8.418;2023-06-14T07:40:21;7.80;;;2.70;;
50429;SDS011;36359;41.556;-8.418;2023-06-14T07:42:47;4.38;;;2.70;;
50429;SDS011;36359;41.556;-8.418;2023-06-14T07:45:15;6.07;;;3.35;;
50429;SDS011;36359;41.556;-8.418;2023-06-14T07:47:41;7.53;;;3.78;;
50429;SDS011;36359;41.556;-8.418;2023-06-14T07:50:08;5.35;;;3.65;;
50429;SDS011;36359;41.556;-8.418;2023-06-14T07:52:38;7.15;;;3.85;;
50429;SDS011;36359;41.556;-8.418;2023-06-14T07:55:04;7.40;;;3.22;;
50429;SDS011;36359;41.556;-8.418;2023-06-14T07:57:30;6.40;;;3.80;;
50429;SDS011;36359;41.556;-8.418;2023-06-14T07:59:56;8.68;;;3.83;;
50429;SDS011;36359;41.556;-8.418;2023-06-14T08:02:22;6.50;;;3.08;;
50429;SDS011;36359;41.556;-8.418;2023-06-14T08:04:48;7.10;;;3.10;;
50429;SDS011;36359;41.556;-8.418;2023-06-14T08:07:15;11.10;;;4.95;;
50429;SDS011;36359;41.556;-8.418;2023-06-14T08:09:41;7.35;;;3.20;;
50429;SDS011;36359;41.556;-8.418;2023-06-14T08:12:07;8.90;;;3.85;;
50429;SDS011;36359;41.556;-8.418;2023-06-14T08:14:36;5.88;;;3.58;;
50429;SDS011;36359;41.556;-8.418;2023-06-14T08:17:05;5.78;;;3.60;;
50429;SDS011;36359;41.556;-8.418;2023-06-14T08:19:31;5.78;;;2.83;;
50429;SDS011;36359;41.556;-8.418;2023-06-14T08:21:58;4.97;;;3.25;;
50429;SDS011;36359;41.556;-8.418;2023-06-14T08:24:25;5.53;;;2.95;;
50429;SDS011;36359;41.556;-8.418;2023-06-14T08:26:52;4.93;;;3.13;;
50429;SDS011;36359;41.556;-8.418;2023-06-14T08:29:18;7.20;;;3.10;;
50429;SDS011;36359;41.556;-8.418;2023-06-14T08:31:45;5.68;;;3.28;;
50429;SDS011;36359;41.556;-8.418;2023-06-14T08:34:10;4.28;;;3.40;;
50429;SDS011;36359;41.556;-8.418;2023-06-14T08:36:36;9.30;;;4.95;;
50429;SDS011;36359;41.556;-8.418;2023-06-14T08:39:02;6.47;;;3.97;;
50429;SDS011;36359;41.556;-8.418;2023-06-14T08:41:37;9.20;;;4.60;;
50429;SDS011;36359;41.556;-8.418;2023-06-14T08:44:03;5.47;;;3.90;;
50429;SDS011;36359;41.556;-8.418;2023-06-14T08:46:30;7.68;;;3.70;;
50429;SDS011;36359;41.556;-8.418;2023-06-14T08:48:59;5.03;;;3.10;;
50429;SDS011;36359;41.556;-8.418;2023-06-14T08:51:29;7.90;;;3.38;;
50429;SDS011;36359;41.556;-8.418;2023-06-14T08:54:02;5.93;;;3.17;;
50429;SDS011;36359;41.556;-8.418;2023-06-14T08:56:30;6.18;;;3.33;;
50429;SDS011;36359;41.556;-8.418;2023-06-14T08:58:57;6.95;;;3.40;;
50429;SDS011;36359;41.556;-8.418;2023-06-14T09:01:28;5.55;;;3.40;;
50429;SDS011;36359;41.556;-8.418;2023-06-14T09:03:54;6.35;;;3.45;;
50429;SDS011;36359;41.556;-8.418;2023-06-14T09:06:22;7.22;;;3.45;;
50429;SDS011;36359;41.556;-8.418;2023-06-14T09:08:56;7.57;;;3.63;;
50429;SDS011;36359;41.556;-8.418;2023-06-14T09:11:22;4.20;;;3.20;;
50429;SDS011;36359;41.556;-8.418;2023-06-14T09:13:48;6.43;;;2.97;;
50429;SDS011;36359;41.556;-8.418;2023-06-14T09:16:16;8.18;;;3.10;;
50429;SDS011;36359;41.556;-8.418;2023-06-14T09:18:49;7.20;;;3.17;;
50429;SDS011;36359;41.556;-8.418;2023-06-14T09:21:15;5.95;;;3.00;;
50429;SDS011;36359;41.556;-8.418;2023-06-14T09:23:50;6.78;;;3.30;;
50429;SDS011;36359;41.556;-8.418;2023-06-14T09:26:16;7.82;;;3.05;;
50429;SDS011;36359;41.556;-8.418;2023-06-14T09:28:48;4.55;;;3.17;;
50429;SDS011;36359;41.556;-8.418;2023-06-14T09:31:17;4.50;;;3.05;;
50429;SDS011;36359;41.556;-8.418;2023-06-14T09:33:47;5.43;;;2.75;;
50429;SDS011;36359;41.556;-8.418;2023-06-14T09:36:26;5.38;;;2.40;;
50429;SDS011;36359;41.556;-8.418;2023-06-14T09:39:02;5.63;;;3.15;;
50429;SDS011;36359;41.556;-8.418;2023-06-14T09:44:01;3.70;;;2.63;;
50429;SDS011;36359;41.556;-8.418;2023-06-14T09:46:29;4.70;;;2.83;;
50429;SDS011;36359;41.556;-8.418;2023-06-14T09:48:56;7.72;;;3.03;;
50429;SDS011;36359;41.556;-8.418;2023-06-14T09:51:23;6.47;;;3.17;;
50429;SDS011;36359;41.556;-8.418;2023-06-14T09:53:49;16.17;;;9.13;;
50429;SDS011;36359;41.556;-8.418;2023-06-14T09:56:23;22.38;;;11.70;;
50429;SDS011;36359;41.556;-8.418;2023-06-14T09:58:59;6.82;;;3.05;;
50429;SDS011;36359;41.556;-8.418;2023-06-14T10:01:26;3.67;;;2.50;;
50429;SDS011;36359;41.556;-8.418;2023-06-14T10:03:55;8.60;;;4.05;;
50429;SDS011;36359;41.556;-8.418;2023-06-14T10:06:27;24.52;;;11.77;;
50429;SDS011;36359;41.556;-8.418;2023-06-14T10:08:58;8.93;;;4.13;;
50429;SDS011;36359;41.556;-8.418;2023-06-14T10:11:26;8.57;;;3.83;;
50429;SDS011;36359;41.556;-8.418;2023-06-14T10:13:56;9.25;;;3.97;;
50429;SDS011;36359;41.556;-8.418;2023-06-14T10:17:06;6.63;;;4.13;;
50429;SDS011;36359;41.556;-8.418;2023-06-14T10:19:24;6.50;;;3.10;;
50429;SDS011;36359;41.556;-8.418;2023-06-14T10:22:04;5.97;;;3.55;;
50429;SDS011;36359;41.556;-8.418;2023-06-14T10:24:42;4.18;;;2.38;;
50429;SDS011;36359;41.556;-8.418;2023-06-14T10:27:10;4.57;;;2.63;;
50429;SDS011;36359;41.556;-8.418;2023-06-14T10:30:12;7.57;;;3.00;;
50429;SDS011;36359;41.556;-8.418;2023-06-14T10:32:33;3.28;;;2.42;;
50429;SDS011;36359;41.556;-8.418;2023-06-14T10:35:08;6.57;;;2.80;;
50429;SDS011;36359;41.556;-8.418;2023-06-14T10:37:41;6.90;;;2.60;;
50429;SDS011;36359;41.556;-8.418;2023-06-14T10:40:07;7.05;;;3.15;;
50429;SDS011;36359;41.556;-8.418;2023-06-14T10:42:34;4.95;;;2.67;;
50429;SDS011;36359;41.556;-8.418;2023-06-14T10:45:00;3.78;;;1.98;;
50429;SDS011;36359;41.556;-8.418;2023-06-14T10:47:30;3.78;;;2.33;;
50429;SDS011;36359;41.556;-8.418;2023-06-14T10:50:07;7.50;;;2.95;;
50429;SDS011;36359;41.556;-8.418;2023-06-14T10:52:34;5.15;;;3.13;;
50429;SDS011;36359;41.556;-8.418;2023-06-14T10:55:06;7.15;;;4.20;;
50429;SDS011;36359;41.556;-8.418;2023-06-14T10:57:41;4.90;;;3.00;;
50429;SDS011;36359;41.556;-8.418;2023-06-14T11:00:28;4.50;;;2.72;;
50429;SDS011;36359;41.556;-8.418;2023-06-14T11:03:18;5.00;;;3.20;;
50429;SDS011;36359;41.556;-8.418;2023-06-14T11:08:29;6.22;;;2.83;;
50429;SDS011;36359;41.556;-8.418;2023-06-14T11:11:06;4.93;;;2.75;;
50429;SDS011;36359;41.556;-8.418;2023-06-14T11:13:34;4.65;;;2.80;;
50429;SDS011;36359;41.556;-8.418;2023-06-14T11:16:26;10.07;;;3.10;;
50429;SDS011;36359;41.556;-8.418;2023-06-14T11:18:56;6.95;;;2.72;;
50429;SDS011;36359;41.556;-8.418;2023-06-14T11:21:24;6.20;;;3.25;;
50429;SDS011;36359;41.556;-8.418;2023-06-14T11:23:52;3.92;;;2.67;;
50429;SDS011;36359;41.556;-8.418;2023-06-14T11:26:29;4.80;;;3.20;;
50429;SDS011;36359;41.556;-8.418;2023-06-14T11:29:04;5.78;;;3.13;;
50429;SDS011;36359;41.556;-8.418;2023-06-14T11:31:30;5.53;;;2.70;;
50429;SDS011;36359;41.556;-8.418;2023-06-14T11:33:57;6.40;;;2.70;;
50429;SDS011;36359;41.556;-8.418;2023-06-14T11:36:27;5.30;;;3.10;;
50429;SDS011;36359;41.556;-8.418;2023-06-14T11:38:58;6.78;;;3.00;;
50429;SDS011;36359;41.556;-8.418;2023-06-14T11:41:46;4.25;;;2.92;;
50429;SDS011;36359;41.556;-8.418;2023-06-14T11:44:12;5.82;;;3.70;;
50429;SDS011;36359;41.556;-8.418;2023-06-14T11:46:38;5.28;;;3.38;;
50429;SDS011;36359;41.556;-8.418;2023-06-14T11:49:10;4.55;;;2.83;;
50429;SDS011;36359;41.556;-8.418;2023-06-14T11:51:44;3.90;;;2.95;;
50429;SDS011;36359;41.556;-8.418;2023-06-14T11:54:12;6.20;;;2.80;;
50429;SDS011;36359;41.556;-8.418;2023-06-14T11:56:38;5.85;;;2.80;;
50429;SDS011;36359;41.556;-8.418;2023-06-14T11:59:04;6.63;;;3.28;;
50429;SDS011;36359;41.556;-8.418;2023-06-14T12:01:30;4.90;;;2.67;;
50429;SDS011;36359;41.556;-8.418;2023-06-14T12:03:57;3.65;;;2.47;;
50429;SDS011;36359;41.556;-8.418;2023-06-14T12:06:28;5.35;;;3.00;;
50429;SDS011;36359;41.556;-8.418;2023-06-14T12:08:58;4.30;;;2.63;;
50429;SDS011;36359;41.556;-8.418;2023-06-14T12:11:23;5.72;;;2.42;;
50429;SDS011;36359;41.556;-8.418;2023-06-14T12:13:53;8.30;;;3.03;;
50429;SDS011;36359;41.556;-8.418;2023-06-14T12:16:21;3.58;;;2.55;;
50429;SDS011;36359;41.556;-8.418;2023-06-14T12:18:46;4.10;;;3.05;;
50429;SDS011;36359;41.556;-8.418;2023-06-14T12:21:12;4.43;;;3.30;;
50429;SDS011;36359;41.556;-8.418;2023-06-14T12:23:48;3.25;;;2.60;;
50429;SDS011;36359;41.556;-8.418;2023-06-14T12:26:15;5.05;;;2.42;;
50429;SDS011;36359;41.556;-8.418;2023-06-14T12:28:42;4.25;;;2.53;;
50429;SDS011;36359;41.556;-8.418;2023-06-14T12:31:12;5.00;;;2.80;;
50429;SDS011;36359;41.556;-8.418;2023-06-14T12:33:39;4.60;;;3.05;;
50429;SDS011;36359;41.556;-8.418;2023-06-14T12:36:09;5.18;;;2.75;;
50429;SDS011;36359;41.556;-8.418;2023-06-14T12:38:36;4.10;;;2.83;;
50429;SDS011;36359;41.556;-8.418;2023-06-14T12:41:02;4.45;;;2.47;;
50429;SDS011;36359;41.556;-8.418;2023-06-14T12:43:28;5.47;;;3.05;;
50429;SDS011;36359;41.556;-8.418;2023-06-14T12:45:54;5.00;;;3.08;;
50429;SDS011;36359;41.556;-8.418;2023-06-14T12:48:20;3.47;;;2.72;;
50429;SDS011;36359;41.556;-8.418;2023-06-14T12:50:46;4.90;;;2.83;;
50429;SDS011;36359;41.556;-8.418;2023-06-14T12:53:13;5.70;;;4.75;;
50429;SDS011;36359;41.556;-8.418;2023-06-14T12:55:39;6.57;;;4.10;;
50429;SDS011;36359;41.556;-8.418;2023-06-14T12:58:05;6.80;;;5.95;;
50429;SDS011;36359;41.556;-8.418;2023-06-14T13:00:31;5.47;;;3.22;;
50429;SDS011;36359;41.556;-8.418;2023-06-14T13:02:57;3.60;;;2.90;;
50429;SDS011;36359;41.556;-8.418;2023-06-14T13:05:23;5.95;;;3.42;;
50429;SDS011;36359;41.556;-8.418;2023-06-14T13:07:50;4.35;;;3.13;;
50429;SDS011;36359;41.556;-8.418;2023-06-14T13:10:16;7.00;;;3.88;;
50429;SDS011;36359;41.556;-8.418;2023-06-14T13:12:43;4.10;;;2.75;;
50429;SDS011;36359;41.556;-8.418;2023-06-14T13:15:08;4.60;;;2.53;;
50429;SDS011;36359;41.556;-8.418;2023-06-14T13:17:35;4.60;;;3.00;;
50429;SDS011;36359;41.556;-8.418;2023-06-14T13:20:04;7.45;;;4.18;;
50429;SDS011;36359;41.556;-8.418;2023-06-14T13:22:32;6.45;;;3.40;;
50429;SDS011;36359;41.556;-8.418;2023-06-14T13:24:58;6.30;;;3.42;;
50429;SDS011;36359;41.556;-8.418;2023-06-14T13:27:24;4.38;;;2.80;;
50429;SDS011;36359;41.556;-8.418;2023-06-14T13:29:50;5.20;;;2.70;;
50429;SDS011;36359;41.556;-8.418;2023-06-14T13:32:16;3.38;;;2.65;;
50429;SDS011;36359;41.556;-8.418;2023-06-14T13:34:42;9.07;;;3.20;;
50429;SDS011;36359;41.556;-8.418;2023-06-14T13:37:07;6.50;;;3.38;;
50429;SDS011;36359;41.556;-8.418;2023-06-14T13:39:33;5.03;;;3.13;;
50429;SDS011;36359;41.556;-8.418;2023-06-14T13:41:59;5.75;;;3.13;;
50429;SDS011;36359;41.556;-8.418;2023-06-14T13:44:25;6.05;;;3.17;;
50429;SDS011;36359;41.556;-8.418;2023-06-14T13:46:50;6.50;;;2.80;;
50429;SDS011;36359;41.556;-8.418;2023-06-14T13:49:16;4.07;;;2.78;;
50429;SDS011;36359;41.556;-8.418;2023-06-14T13:51:42;6.63;;;3.03;;
50429;SDS011;36359;41.556;-8.418;2023-06-14T13:54:08;3.30;;;2.85;;
50429;SDS011;36359;41.556;-8.418;2023-06-14T13:56:34;8.57;;;3.40;;
50429;SDS011;36359;41.556;-8.418;2023-06-14T13:58:59;4.75;;;2.97;;
50429;SDS011;36359;41.556;-8.418;2023-06-14T14:01:25;4.75;;;2.70;;
50429;SDS011;36359;41.556;-8.418;2023-06-14T14:03:51;5.30;;;3.10;;
50429;SDS011;36359;41.556;-8.418;2023-06-14T14:06:17;4.50;;;2.95;;
50429;SDS011;36359;41.556;-8.418;2023-06-14T14:08:43;4.38;;;3.17;;
50429;SDS011;36359;41.556;-8.418;2023-06-14T14:11:09;4.78;;;3.22;;
50429;SDS011;36359;41.556;-8.418;2023-06-14T14:13:35;8.60;;;3.30;;
50429;SDS011;36359;41.556;-8.418;2023-06-14T14:16:05;4.97;;;2.78;;
50429;SDS011;36359;41.556;-8.418;2023-06-14T14:18:31;5.68;;;2.90;;
50429;SDS011;36359;41.556;-8.418;2023-06-14T14:20:58;4.47;;;3.05;;
50429;SDS011;36359;41.556;-8.418;2023-06-14T14:23:24;3.30;;;2.53;;
50429;SDS011;36359;41.556;-8.418;2023-06-14T14:25:49;3.33;;;2.60;;
50429;SDS011;36359;41.556;-8.418;2023-06-14T14:28:15;5.90;;;3.38;;
50429;SDS011;36359;41.556;-8.418;2023-06-14T14:30:43;5.32;;;3.05;;
50429;SDS011;36359;41.556;-8.418;2023-06-14T14:33:09;3.55;;;2.80;;
50429;SDS011;36359;41.556;-8.418;2023-06-14T14:35:41;5.05;;;3.22;;
50429;SDS011;36359;41.556;-8.418;2023-06-14T14:38:08;2.92;;;2.42;;
50429;SDS011;36359;41.556;-8.418;2023-06-14T14:43:06;6.00;;;3.20;;
50429;SDS011;36359;41.556;-8.418;2023-06-14T14:45:32;4.70;;;3.05;;
50429;SDS011;36359;41.556;-8.418;2023-06-14T14:47:58;4.22;;;3.30;;
50429;SDS011;36359;41.556;-8.418;2023-06-14T14:50:25;4.22;;;2.80;;
50429;SDS011;36359;41.556;-8.418;2023-06-14T14:52:50;5.50;;;3.00;;
50429;SDS011;36359;41.556;-8.418;2023-06-14T14:55:16;6.03;;;2.92;;